sensor_id;sensor_type;location;lat;lon;timestamp;P1;durP1;ratioP1;P2;durP2;ratioP2
49502;SDS011;35409;48.776;9.204;2022-11-02T00:00:41;6.50;;;2.50;;
49502;SDS011;35409;48.776;9.204;2022-11-02T00:03:08;5.28;;;2.58;;
49502;SDS011;35409;48.776;9.204;2022-11-02T00:05:34;4.63;;;2.42;;
49502;SDS011;35409;48.776;9.204;2022-11-02T00:08:00;6.13;;;2.17;;
49502;SDS011;35409;48.776;9.204;2022-11-02T00:10:25;7.13;;;2.30;;
49502;SDS011;35409;48.776;9.204;2022-11-02T00:12:51;4.57;;;1.80;;
49502;SDS011;35409;48.776;9.204;2022-11-02T00:15:17;5.88;;;2.67;;
49502;SDS011;35409;48.776;9.204;2022-11-02T00:17:47;7.38;;;2.50;;
49502;SDS011;35409;48.776;9.204;2022-11-02T00:20:17;6.25;;;2.22;;
49502;SDS011;35409;48.776;9.204;2022-11-02T00:22:43;6.32;;;2.30;;
49502;SDS011;35409;48.776;9.204;2022-11-02T00:25:12;7.85;;;2.30;;
49502;SDS011;35409;48.776;9.204;2022-11-02T00:27:40;4.63;;;2.47;;
49502;SDS011;35409;48.776;9.204;2022-11-02T00:30:07;6.70;;;2.00;;
49502;SDS011;35409;48.776;9.204;2022-11-02T00:32:33;11.85;;;2.22;;
49502;SDS011;35409;48.776;9.204;2022-11-02T00:34:59;10.30;;;2.45;;
49502;SDS011;35409;48.776;9.204;2022-11-02T00:37:24;9.68;;;2.35;;
49502;SDS011;35409;48.776;9.204;2022-11-02T00:39:50;7.30;;;1.95;;
49502;SDS011;35409;48.776;9.204;2022-11-02T00:42:16;6.93;;;2.17;;
49502;SDS011;35409;48.776;9.204;2022-11-02T00:44:41;7.50;;;1.98;;
49502;SDS011;35409;48.776;9.204;2022-11-02T00:47:07;5.70;;;1.88;;
49502;SDS011;35409;48.776;9.204;2022-11-02T00:49:32;7.50;;;1.80;;
49502;SDS011;35409;48.776;9.204;2022-11-02T00:51:58;8.38;;;1.92;;
49502;SDS011;35409;48.776;9.204;2022-11-02T00:54:24;5.88;;;1.63;;
49502;SDS011;35409;48.776;9.204;2022-11-02T00:56:49;7.95;;;1.85;;
49502;SDS011;35409;48.776;9.204;2022-11-02T00:59:15;7.75;;;1.67;;
49502;SDS011;35409;48.776;9.204;2022-11-02T01:01:40;10.48;;;1.90;;
49502;SDS011;35409;48.776;9.204;2022-11-02T01:04:11;7.40;;;1.60;;
49502;SDS011;35409;48.776;9.204;2022-11-02T01:06:41;10.15;;;1.55;;
49502;SDS011;35409;48.776;9.204;2022-11-02T01:09:07;6.57;;;1.40;;
49502;SDS011;35409;48.776;9.204;2022-11-02T01:11:34;13.30;;;1.95;;
49502;SDS011;35409;48.776;9.204;2022-11-02T01:13:59;15.77;;;2.00;;
49502;SDS011;35409;48.776;9.204;2022-11-02T01:16:25;5.10;;;1.40;;
49502;SDS011;35409;48.776;9.204;2022-11-02T01:18:51;6.30;;;1.73;;
49502;SDS011;35409;48.776;9.204;2022-11-02T01:21:18;6.43;;;1.95;;
49502;SDS011;35409;48.776;9.204;2022-11-02T01:23:43;7.22;;;1.75;;
49502;SDS011;35409;48.776;9.204;2022-11-02T01:26:09;12.00;;;1.60;;
49502;SDS011;35409;48.776;9.204;2022-11-02T01:28:36;5.15;;;1.45;;
49502;SDS011;35409;48.776;9.204;2022-11-02T01:31:01;8.02;;;1.75;;
49502;SDS011;35409;48.776;9.204;2022-11-02T01:33:27;12.25;;;1.88;;
49502;SDS011;35409;48.776;9.204;2022-11-02T01:35:53;5.00;;;1.90;;
49502;SDS011;35409;48.776;9.204;2022-11-02T01:38:20;5.20;;;1.90;;
49502;SDS011;35409;48.776;9.204;2022-11-02T01:40:46;7.15;;;1.77;;
49502;SDS011;35409;48.776;9.204;2022-11-02T01:43:22;4.45;;;1.70;;
49502;SDS011;35409;48.776;9.204;2022-11-02T01:48:38;3.85;;;1.60;;
49502;SDS011;35409;48.776;9.204;2022-11-02T01:51:05;2.83;;;1.45;;
49502;SDS011;35409;48.776;9.204;2022-11-02T01:53:37;5.55;;;1.60;;
49502;SDS011;35409;48.776;9.204;2022-11-02T01:56:09;7.65;;;1.50;;
49502;SDS011;35409;48.776;9.204;2022-11-02T01:58:38;3.73;;;1.63;;
49502;SDS011;35409;48.776;9.204;2022-11-02T02:01:04;6.55;;;1.80;;
49502;SDS011;35409;48.776;9.204;2022-11-02T02:03:31;5.13;;;1.63;;
49502;SDS011;35409;48.776;9.204;2022-11-02T02:06:01;6.00;;;1.60;;
49502;SDS011;35409;48.776;9.204;2022-11-02T02:08:34;5.72;;;2.08;;
49502;SDS011;35409;48.776;9.204;2022-11-02T02:11:19;6.68;;;1.73;;
49502;SDS011;35409;48.776;9.204;2022-11-02T02:13:53;7.57;;;2.05;;
49502;SDS011;35409;48.776;9.204;2022-11-02T02:16:28;4.50;;;1.45;;
49502;SDS011;35409;48.776;9.204;2022-11-02T02:19:07;5.72;;;1.85;;
49502;SDS011;35409;48.776;9.204;2022-11-02T02:21:56;6.22;;;1.88;;
49502;SDS011;35409;48.776;9.204;2022-11-02T02:24:57;8.23;;;2.58;;
49502;SDS011;35409;48.776;9.204;2022-11-02T02:30:24;7.68;;;2.65;;
49502;SDS011;35409;48.776;9.204;2022-11-02T02:40:21;10.32;;;2.42;;
49502;SDS011;35409;48.776;9.204;2022-11-02T02:43:11;6.28;;;2.05;;
49502;SDS011;35409;48.776;9.204;2022-11-02T02:45:43;6.10;;;2.22;;
49502;SDS011;35409;48.776;9.204;2022-11-02T02:48:16;7.55;;;2.10;;
49502;SDS011;35409;48.776;9.204;2022-11-02T02:50:50;9.43;;;2.38;;
49502;SDS011;35409;48.776;9.204;2022-11-02T02:53:24;5.72;;;1.85;;
49502;SDS011;35409;48.776;9.204;2022-11-02T02:55:54;7.22;;;2.33;;
49502;SDS011;35409;48.776;9.204;2022-11-02T02:58:25;5.75;;;2.00;;
49502;SDS011;35409;48.776;9.204;2022-11-02T03:00:55;8.90;;;1.88;;
49502;SDS011;35409;48.776;9.204;2022-11-02T03:03:24;4.47;;;1.80;;
49502;SDS011;35409;48.776;9.204;2022-11-02T03:06:09;9.35;;;2.22;;
49502;SDS011;35409;48.776;9.204;2022-11-02T03:08:45;4.43;;;1.92;;
49502;SDS011;35409;48.776;9.204;2022-11-02T03:11:15;8.88;;;1.83;;
49502;SDS011;35409;48.776;9.204;2022-11-02T03:14:47;7.38;;;2.17;;
49502;SDS011;35409;48.776;9.204;2022-11-02T03:21:48;6.85;;;1.83;;
49502;SDS011;35409;48.776;9.204;2022-11-02T03:24:21;6.00;;;1.67;;
49502;SDS011;35409;48.776;9.204;2022-11-02T03:29:36;5.22;;;1.52;;
49502;SDS011;35409;48.776;9.204;2022-11-02T03:32:19;5.22;;;1.60;;
49502;SDS011;35409;48.776;9.204;2022-11-02T03:34:54;7.97;;;1.77;;
49502;SDS011;35409;48.776;9.204;2022-11-02T03:37:32;6.50;;;1.80;;
49502;SDS011;35409;48.776;9.204;2022-11-02T03:43:11;7.28;;;1.40;;
49502;SDS011;35409;48.776;9.204;2022-11-02T03:45:43;6.88;;;1.27;;
49502;SDS011;35409;48.776;9.204;2022-11-02T03:48:16;11.93;;;1.80;;
49502;SDS011;35409;48.776;9.204;2022-11-02T03:50:44;7.97;;;1.58;;
49502;SDS011;35409;48.776;9.204;2022-11-02T03:53:25;8.02;;;1.50;;
49502;SDS011;35409;48.776;9.204;2022-11-02T03:56:08;5.50;;;1.83;;
49502;SDS011;35409;48.776;9.204;2022-11-02T03:58:45;5.18;;;1.33;;
49502;SDS011;35409;48.776;9.204;2022-11-02T04:01:10;6.00;;;1.90;;
49502;SDS011;35409;48.776;9.204;2022-11-02T04:03:39;6.68;;;1.88;;
49502;SDS011;35409;48.776;9.204;2022-11-02T04:06:09;6.95;;;1.75;;
49502;SDS011;35409;48.776;9.204;2022-11-02T04:08:38;7.78;;;2.00;;
49502;SDS011;35409;48.776;9.204;2022-11-02T04:11:08;4.95;;;0.95;;
49502;SDS011;35409;48.776;9.204;2022-11-02T04:13:53;9.35;;;1.90;;
49502;SDS011;35409;48.776;9.204;2022-11-02T04:16:37;6.00;;;1.52;;
49502;SDS011;35409;48.776;9.204;2022-11-02T04:19:03;10.60;;;1.55;;
49502;SDS011;35409;48.776;9.204;2022-11-02T04:21:47;4.60;;;1.25;;
49502;SDS011;35409;48.776;9.204;2022-11-02T04:24:32;4.05;;;1.17;;
49502;SDS011;35409;48.776;9.204;2022-11-02T04:27:16;2.55;;;1.20;;
49502;SDS011;35409;48.776;9.204;2022-11-02T04:29:41;8.38;;;1.73;;
49502;SDS011;35409;48.776;9.204;2022-11-02T04:32:07;6.53;;;1.45;;
49502;SDS011;35409;48.776;9.204;2022-11-02T04:34:33;6.30;;;1.17;;
49502;SDS011;35409;48.776;9.204;2022-11-02T04:36:59;7.40;;;1.70;;
49502;SDS011;35409;48.776;9.204;2022-11-02T04:39:24;5.28;;;1.35;;
49502;SDS011;35409;48.776;9.204;2022-11-02T04:41:50;8.65;;;1.55;;
49502;SDS011;35409;48.776;9.204;2022-11-02T04:44:15;11.95;;;2.20;;
49502;SDS011;35409;48.776;9.204;2022-11-02T04:46:42;2.45;;;1.05;;
49502;SDS011;35409;48.776;9.204;2022-11-02T04:49:08;5.38;;;1.33;;
49502;SDS011;35409;48.776;9.204;2022-11-02T04:51:35;9.40;;;1.60;;
49502;SDS011;35409;48.776;9.204;2022-11-02T04:54:01;7.03;;;1.20;;
49502;SDS011;35409;48.776;9.204;2022-11-02T04:56:27;5.50;;;1.70;;
49502;SDS011;35409;48.776;9.204;2022-11-02T04:58:55;9.40;;;1.60;;
49502;SDS011;35409;48.776;9.204;2022-11-02T05:01:22;4.13;;;1.17;;
49502;SDS011;35409;48.776;9.204;2022-11-02T05:03:51;4.78;;;1.35;;
49502;SDS011;35409;48.776;9.204;2022-11-02T05:06:17;8.23;;;1.40;;
49502;SDS011;35409;48.776;9.204;2022-11-02T05:08:44;5.88;;;1.33;;
49502;SDS011;35409;48.776;9.204;2022-11-02T05:11:10;6.25;;;1.25;;
49502;SDS011;35409;48.776;9.204;2022-11-02T05:13:37;6.18;;;1.42;;
49502;SDS011;35409;48.776;9.204;2022-11-02T05:16:04;8.20;;;1.80;;
49502;SDS011;35409;48.776;9.204;2022-11-02T05:18:30;7.85;;;1.70;;
49502;SDS011;35409;48.776;9.204;2022-11-02T05:20:57;2.08;;;0.95;;
49502;SDS011;35409;48.776;9.204;2022-11-02T05:23:24;5.95;;;1.95;;
49502;SDS011;35409;48.776;9.204;2022-11-02T05:25:57;6.45;;;1.30;;
49502;SDS011;35409;48.776;9.204;2022-11-02T05:28:25;9.10;;;1.50;;
49502;SDS011;35409;48.776;9.204;2022-11-02T05:30:52;5.78;;;1.27;;
49502;SDS011;35409;48.776;9.204;2022-11-02T05:33:18;7.70;;;1.48;;
49502;SDS011;35409;48.776;9.204;2022-11-02T05:35:44;4.93;;;1.60;;
49502;SDS011;35409;48.776;9.204;2022-11-02T05:38:10;4.28;;;1.40;;
49502;SDS011;35409;48.776;9.204;2022-11-02T05:40:36;4.65;;;1.30;;
49502;SDS011;35409;48.776;9.204;2022-11-02T05:43:04;8.10;;;2.00;;
49502;SDS011;35409;48.776;9.204;2022-11-02T05:45:30;6.25;;;2.10;;
49502;SDS011;35409;48.776;9.204;2022-11-02T05:47:58;4.60;;;1.17;;
49502;SDS011;35409;48.776;9.204;2022-11-02T05:50:25;5.65;;;1.65;;
49502;SDS011;35409;48.776;9.204;2022-11-02T05:52:51;5.38;;;1.23;;
49502;SDS011;35409;48.776;9.204;2022-11-02T05:55:17;7.38;;;1.73;;
49502;SDS011;35409;48.776;9.204;2022-11-02T05:57:42;6.45;;;1.67;;
49502;SDS011;35409;48.776;9.204;2022-11-02T06:00:08;9.18;;;1.70;;
49502;SDS011;35409;48.776;9.204;2022-11-02T06:02:35;8.00;;;1.60;;
49502;SDS011;35409;48.776;9.204;2022-11-02T06:05:01;6.90;;;1.58;;
49502;SDS011;35409;48.776;9.204;2022-11-02T06:07:27;9.90;;;1.65;;
49502;SDS011;35409;48.776;9.204;2022-11-02T06:09:52;6.85;;;1.50;;
49502;SDS011;35409;48.776;9.204;2022-11-02T06:12:18;11.63;;;2.00;;
49502;SDS011;35409;48.776;9.204;2022-11-02T06:14:44;7.80;;;1.75;;
49502;SDS011;35409;48.776;9.204;2022-11-02T06:17:09;6.40;;;1.45;;
49502;SDS011;35409;48.776;9.204;2022-11-02T06:19:35;10.10;;;2.17;;
49502;SDS011;35409;48.776;9.204;2022-11-02T06:22:00;8.45;;;2.03;;
49502;SDS011;35409;48.776;9.204;2022-11-02T06:24:26;7.45;;;1.73;;
49502;SDS011;35409;48.776;9.204;2022-11-02T06:26:51;4.13;;;1.50;;
49502;SDS011;35409;48.776;9.204;2022-11-02T06:29:17;8.68;;;1.48;;
49502;SDS011;35409;48.776;9.204;2022-11-02T06:31:42;10.15;;;1.83;;
49502;SDS011;35409;48.776;9.204;2022-11-02T06:34:08;9.82;;;1.67;;
49502;SDS011;35409;48.776;9.204;2022-11-02T06:36:34;7.55;;;1.55;;
49502;SDS011;35409;48.776;9.204;2022-11-02T06:39:00;7.35;;;1.42;;
49502;SDS011;35409;48.776;9.204;2022-11-02T06:41:26;5.88;;;1.63;;
49502;SDS011;35409;48.776;9.204;2022-11-02T06:43:52;5.15;;;1.63;;
49502;SDS011;35409;48.776;9.204;2022-11-02T06:46:17;7.00;;;1.83;;
49502;SDS011;35409;48.776;9.204;2022-11-02T06:48:45;11.95;;;1.88;;
49502;SDS011;35409;48.776;9.204;2022-11-02T06:51:11;9.15;;;1.90;;
49502;SDS011;35409;48.776;9.204;2022-11-02T06:53:37;7.53;;;1.88;;
49502;SDS011;35409;48.776;9.204;2022-11-02T06:56:02;7.05;;;2.00;;
49502;SDS011;35409;48.776;9.204;2022-11-02T06:58:28;9.13;;;1.70;;
49502;SDS011;35409;48.776;9.204;2022-11-02T07:01:01;11.15;;;2.00;;
49502;SDS011;35409;48.776;9.204;2022-11-02T07:03:30;8.35;;;2.25;;
49502;SDS011;35409;48.776;9.204;2022-11-02T07:05:56;10.57;;;1.88;;
49502;SDS011;35409;48.776;9.204;2022-11-02T07:08:22;8.13;;;2.28;;
49502;SDS011;35409;48.776;9.204;2022-11-02T07:10:48;9.00;;;1.70;;
49502;SDS011;35409;48.776;9.204;2022-11-02T07:13:13;11.90;;;1.83;;
49502;SDS011;35409;48.776;9.204;2022-11-02T07:15:39;10.20;;;2.33;;
49502;SDS011;35409;48.776;9.204;2022-11-02T07:18:05;5.32;;;1.30;;
49502;SDS011;35409;48.776;9.204;2022-11-02T07:20:32;8.32;;;1.70;;
49502;SDS011;35409;48.776;9.204;2022-11-02T07:22:59;8.63;;;1.42;;
49502;SDS011;35409;48.776;9.204;2022-11-02T07:25:26;6.30;;;1.50;;
49502;SDS011;35409;48.776;9.204;2022-11-02T07:27:55;8.23;;;1.43;;
49502;SDS011;35409;48.776;9.204;2022-11-02T07:30:21;8.70;;;1.60;;
49502;SDS011;35409;48.776;9.204;2022-11-02T07:32:46;4.80;;;1.35;;
49502;SDS011;35409;48.776;9.204;2022-11-02T07:35:13;10.27;;;2.22;;
49502;SDS011;35409;48.776;9.204;2022-11-02T07:37:40;13.95;;;2.38;;
49502;SDS011;35409;48.776;9.204;2022-11-02T07:40:06;9.57;;;2.65;;
49502;SDS011;35409;48.776;9.204;2022-11-02T07:42:33;9.73;;;2.22;;
49502;SDS011;35409;48.776;9.204;2022-11-02T07:44:59;8.77;;;1.60;;
49502;SDS011;35409;48.776;9.204;2022-11-02T07:47:24;7.38;;;1.50;;
49502;SDS011;35409;48.776;9.204;2022-11-02T07:49:50;13.57;;;1.98;;
49502;SDS011;35409;48.776;9.204;2022-11-02T07:52:16;9.20;;;2.45;;
49502;SDS011;35409;48.776;9.204;2022-11-02T07:54:42;7.00;;;1.83;;
49502;SDS011;35409;48.776;9.204;2022-11-02T07:57:07;4.72;;;1.30;;
49502;SDS011;35409;48.776;9.204;2022-11-02T07:59:33;9.07;;;2.05;;
49502;SDS011;35409;48.776;9.204;2022-11-02T08:02:00;8.82;;;2.00;;
49502;SDS011;35409;48.776;9.204;2022-11-02T08:04:26;4.70;;;1.52;;
49502;SDS011;35409;48.776;9.204;2022-11-02T08:06:52;7.97;;;1.63;;
49502;SDS011;35409;48.776;9.204;2022-11-02T08:09:17;5.65;;;1.75;;
49502;SDS011;35409;48.776;9.204;2022-11-02T08:11:43;10.40;;;2.58;;
49502;SDS011;35409;48.776;9.204;2022-11-02T08:14:09;7.97;;;1.83;;
49502;SDS011;35409;48.776;9.204;2022-11-02T08:16:34;7.32;;;2.08;;
49502;SDS011;35409;48.776;9.204;2022-11-02T08:19:01;12.07;;;1.70;;
49502;SDS011;35409;48.776;9.204;2022-11-02T08:21:26;7.78;;;1.65;;
49502;SDS011;35409;48.776;9.204;2022-11-02T08:23:52;6.43;;;1.40;;
49502;SDS011;35409;48.776;9.204;2022-11-02T08:26:19;5.70;;;1.55;;
49502;SDS011;35409;48.776;9.204;2022-11-02T08:28:45;9.73;;;1.73;;
49502;SDS011;35409;48.776;9.204;2022-11-02T08:31:14;3.72;;;1.40;;
49502;SDS011;35409;48.776;9.204;2022-11-02T08:33:42;6.93;;;1.60;;
49502;SDS011;35409;48.776;9.204;2022-11-02T08:36:09;10.35;;;1.77;;
49502;SDS011;35409;48.776;9.204;2022-11-02T08:38:35;7.43;;;1.75;;
49502;SDS011;35409;48.776;9.204;2022-11-02T08:41:01;5.82;;;1.48;;
49502;SDS011;35409;48.776;9.204;2022-11-02T08:43:27;6.63;;;1.70;;
49502;SDS011;35409;48.776;9.204;2022-11-02T08:45:55;9.32;;;1.60;;
49502;SDS011;35409;48.776;9.204;2022-11-02T08:48:22;6.67;;;2.30;;
49502;SDS011;35409;48.776;9.204;2022-11-02T08:50:48;6.90;;;1.58;;
49502;SDS011;35409;48.776;9.204;2022-11-02T08:53:14;7.53;;;1.45;;
49502;SDS011;35409;48.776;9.204;2022-11-02T08:55:39;8.85;;;1.90;;
49502;SDS011;35409;48.776;9.204;2022-11-02T08:58:05;7.85;;;1.88;;
49502;SDS011;35409;48.776;9.204;2022-11-02T09:00:31;5.75;;;1.48;;
49502;SDS011;35409;48.776;9.204;2022-11-02T09:03:02;8.88;;;1.58;;
49502;SDS011;35409;48.776;9.204;2022-11-02T09:05:29;6.97;;;1.50;;
49502;SDS011;35409;48.776;9.204;2022-11-02T09:07:57;6.80;;;1.30;;
49502;SDS011;35409;48.776;9.204;2022-11-02T09:10:25;5.45;;;1.35;;
49502;SDS011;35409;48.776;9.204;2022-11-02T09:12:52;9.13;;;2.22;;
49502;SDS011;35409;48.776;9.204;2022-11-02T09:15:18;5.57;;;1.50;;
49502;SDS011;35409;48.776;9.204;2022-11-02T09:17:47;4.22;;;1.45;;
49502;SDS011;35409;48.776;9.204;2022-11-02T09:20:14;7.78;;;1.55;;
49502;SDS011;35409;48.776;9.204;2022-11-02T09:22:40;6.93;;;1.35;;
49502;SDS011;35409;48.776;9.204;2022-11-02T09:25:06;8.60;;;1.73;;
49502;SDS011;35409;48.776;9.204;2022-11-02T09:27:32;13.25;;;1.60;;
49502;SDS011;35409;48.776;9.204;2022-11-02T09:29:58;5.85;;;1.38;;
49502;SDS011;35409;48.776;9.204;2022-11-02T09:32:23;7.88;;;1.52;;
49502;SDS011;35409;48.776;9.204;2022-11-02T09:34:49;8.63;;;1.80;;
49502;SDS011;35409;48.776;9.204;2022-11-02T09:37:16;7.50;;;1.48;;
49502;SDS011;35409;48.776;9.204;2022-11-02T09:39:41;8.73;;;1.58;;
49502;SDS011;35409;48.776;9.204;2022-11-02T09:42:18;7.38;;;1.48;;
49502;SDS011;35409;48.776;9.204;2022-11-02T09:45:12;8.30;;;1.63;;
49502;SDS011;35409;48.776;9.204;2022-11-02T09:47:42;4.45;;;1.20;;
49502;SDS011;35409;48.776;9.204;2022-11-02T09:50:12;8.65;;;2.17;;
49502;SDS011;35409;48.776;9.204;2022-11-02T09:52:44;4.28;;;1.27;;
49502;SDS011;35409;48.776;9.204;2022-11-02T09:55:16;9.15;;;1.58;;
49502;SDS011;35409;48.776;9.204;2022-11-02T09:57:47;9.82;;;1.70;;
49502;SDS011;35409;48.776;9.204;2022-11-02T10:00:18;5.57;;;1.55;;
49502;SDS011;35409;48.776;9.204;2022-11-02T10:05:46;11.65;;;1.60;;
49502;SDS011;35409;48.776;9.204;2022-11-02T10:13:41;8.75;;;1.67;;
49502;SDS011;35409;48.776;9.204;2022-11-02T10:16:20;9.23;;;2.05;;
49502;SDS011;35409;48.776;9.204;2022-11-02T10:21:29;4.78;;;1.40;;
49502;SDS011;35409;48.776;9.204;2022-11-02T10:23:58;7.68;;;1.77;;
49502;SDS011;35409;48.776;9.204;2022-11-02T10:26:33;8.40;;;1.55;;
49502;SDS011;35409;48.776;9.204;2022-11-02T10:29:02;5.47;;;1.88;;
49502;SDS011;35409;48.776;9.204;2022-11-02T10:31:45;9.73;;;1.83;;
49502;SDS011;35409;48.776;9.204;2022-11-02T10:34:18;10.13;;;1.75;;
49502;SDS011;35409;48.776;9.204;2022-11-02T10:39:29;10.65;;;1.45;;
49502;SDS011;35409;48.776;9.204;2022-11-02T10:42:15;13.77;;;2.20;;
49502;SDS011;35409;48.776;9.204;2022-11-02T10:50:35;29.83;;;2.30;;
49502;SDS011;35409;48.776;9.204;2022-11-02T10:53:11;6.10;;;1.73;;
49502;SDS011;35409;48.776;9.204;2022-11-02T10:55:44;6.57;;;1.20;;
49502;SDS011;35409;48.776;9.204;2022-11-02T10:58:22;7.28;;;2.05;;
49502;SDS011;35409;48.776;9.204;2022-11-02T11:01:02;6.97;;;1.75;;
49502;SDS011;35409;48.776;9.204;2022-11-02T11:03:29;5.25;;;1.52;;
49502;SDS011;35409;48.776;9.204;2022-11-02T11:05:58;7.82;;;1.52;;
49502;SDS011;35409;48.776;9.204;2022-11-02T11:08:42;8.38;;;1.75;;
49502;SDS011;35409;48.776;9.204;2022-11-02T11:11:21;7.05;;;1.60;;
49502;SDS011;35409;48.776;9.204;2022-11-02T11:13:55;9.43;;;1.90;;
49502;SDS011;35409;48.776;9.204;2022-11-02T11:16:32;12.10;;;1.83;;
49502;SDS011;35409;48.776;9.204;2022-11-02T11:19:28;11.07;;;2.00;;
49502;SDS011;35409;48.776;9.204;2022-11-02T11:22:20;7.93;;;1.85;;
49502;SDS011;35409;48.776;9.204;2022-11-02T11:27:46;11.07;;;1.50;;
49502;SDS011;35409;48.776;9.204;2022-11-02T11:30:26;6.93;;;2.13;;
49502;SDS011;35409;48.776;9.204;2022-11-02T11:32:54;8.85;;;1.60;;
49502;SDS011;35409;48.776;9.204;2022-11-02T11:35:20;7.57;;;1.75;;
49502;SDS011;35409;48.776;9.204;2022-11-02T11:37:52;8.23;;;1.98;;
49502;SDS011;35409;48.776;9.204;2022-11-02T11:40:31;7.82;;;1.60;;
49502;SDS011;35409;48.776;9.204;2022-11-02T11:43:01;8.32;;;1.60;;
49502;SDS011;35409;48.776;9.204;2022-11-02T11:45:30;6.30;;;1.45;;
49502;SDS011;35409;48.776;9.204;2022-11-02T11:50:22;7.75;;;1.48;;
49502;SDS011;35409;48.776;9.204;2022-11-02T11:53:05;8.93;;;1.73;;
49502;SDS011;35409;48.776;9.204;2022-11-02T11:55:54;4.63;;;1.33;;
49502;SDS011;35409;48.776;9.204;2022-11-02T12:01:09;6.25;;;1.60;;
49502;SDS011;35409;48.776;9.204;2022-11-02T12:12:12;7.55;;;1.65;;
49502;SDS011;35409;48.776;9.204;2022-11-02T12:18:07;9.55;;;2.28;;
49502;SDS011;35409;48.776;9.204;2022-11-02T12:23:53;7.70;;;1.95;;
49502;SDS011;35409;48.776;9.204;2022-11-02T12:34:35;8.02;;;1.75;;
49502;SDS011;35409;48.776;9.204;2022-11-02T12:49:05;6.68;;;1.50;;
49502;SDS011;35409;48.776;9.204;2022-11-02T12:54:40;8.05;;;1.80;;
49502;SDS011;35409;48.776;9.204;2022-11-02T12:57:11;4.30;;;1.50;;
49502;SDS011;35409;48.776;9.204;2022-11-02T12:59:38;11.50;;;2.60;;
49502;SDS011;35409;48.776;9.204;2022-11-02T13:02:17;7.05;;;2.10;;
49502;SDS011;35409;48.776;9.204;2022-11-02T13:04:51;4.80;;;1.70;;
49502;SDS011;35409;48.776;9.204;2022-11-02T13:07:36;5.97;;;1.65;;
49502;SDS011;35409;48.776;9.204;2022-11-02T13:10:05;5.63;;;1.75;;
49502;SDS011;35409;48.776;9.204;2022-11-02T13:12:32;6.03;;;1.42;;
49502;SDS011;35409;48.776;9.204;2022-11-02T13:15:06;5.88;;;1.77;;
49502;SDS011;35409;48.776;9.204;2022-11-02T13:20:08;5.53;;;1.60;;
49502;SDS011;35409;48.776;9.204;2022-11-02T13:22:38;7.93;;;1.55;;
49502;SDS011;35409;48.776;9.204;2022-11-02T13:25:15;7.30;;;1.52;;
49502;SDS011;35409;48.776;9.204;2022-11-02T13:27:46;8.77;;;1.85;;
49502;SDS011;35409;48.776;9.204;2022-11-02T13:30:14;5.22;;;1.45;;
49502;SDS011;35409;48.776;9.204;2022-11-02T13:32:44;6.28;;;1.40;;
49502;SDS011;35409;48.776;9.204;2022-11-02T13:35:23;7.85;;;1.95;;
49502;SDS011;35409;48.776;9.204;2022-11-02T13:38:00;10.90;;;1.53;;
49502;SDS011;35409;48.776;9.204;2022-11-02T13:40:33;7.22;;;1.63;;
49502;SDS011;35409;48.776;9.204;2022-11-02T13:48:19;8.27;;;1.65;;
49502;SDS011;35409;48.776;9.204;2022-11-02T13:50:49;8.40;;;1.80;;
49502;SDS011;35409;48.776;9.204;2022-11-02T13:53:19;6.63;;;1.80;;
49502;SDS011;35409;48.776;9.204;2022-11-02T13:58:23;5.80;;;2.15;;
49502;SDS011;35409;48.776;9.204;2022-11-02T14:00:49;6.78;;;1.52;;
49502;SDS011;35409;48.776;9.204;2022-11-02T14:03:18;6.15;;;1.63;;
49502;SDS011;35409;48.776;9.204;2022-11-02T14:19:12;10.05;;;2.20;;
49502;SDS011;35409;48.776;9.204;2022-11-02T14:21:40;10.80;;;2.40;;
49502;SDS011;35409;48.776;9.204;2022-11-02T14:26:52;9.38;;;2.53;;
49502;SDS011;35409;48.776;9.204;2022-11-02T14:32:06;7.72;;;2.25;;
49502;SDS011;35409;48.776;9.204;2022-11-02T14:42:24;11.02;;;2.40;;
49502;SDS011;35409;48.776;9.204;2022-11-02T14:47:39;10.07;;;2.10;;
49502;SDS011;35409;48.776;9.204;2022-11-02T14:52:32;6.32;;;1.88;;
49502;SDS011;35409;48.776;9.204;2022-11-02T14:55:03;10.27;;;2.28;;
49502;SDS011;35409;48.776;9.204;2022-11-02T14:57:50;9.52;;;2.13;;
49502;SDS011;35409;48.776;9.204;2022-11-02T15:00:21;8.95;;;2.38;;
49502;SDS011;35409;48.776;9.204;2022-11-02T15:02:47;6.72;;;1.80;;
49502;SDS011;35409;48.776;9.204;2022-11-02T15:05:21;11.93;;;2.13;;
49502;SDS011;35409;48.776;9.204;2022-11-02T15:07:49;10.77;;;2.28;;
49502;SDS011;35409;48.776;9.204;2022-11-02T15:12:45;5.90;;;1.90;;
49502;SDS011;35409;48.776;9.204;2022-11-02T15:15:28;10.73;;;3.20;;
49502;SDS011;35409;48.776;9.204;2022-11-02T15:20:24;8.70;;;2.67;;
49502;SDS011;35409;48.776;9.204;2022-11-02T15:23:52;8.38;;;2.30;;
49502;SDS011;35409;48.776;9.204;2022-11-02T15:25:50;7.35;;;2.13;;
49502;SDS011;35409;48.776;9.204;2022-11-02T15:28:21;3.78;;;1.35;;
49502;SDS011;35409;48.776;9.204;2022-11-02T15:31:33;4.63;;;1.60;;
49502;SDS011;35409;48.776;9.204;2022-11-02T15:33:50;11.65;;;3.08;;
49502;SDS011;35409;48.776;9.204;2022-11-02T15:36:23;12.50;;;2.90;;
49502;SDS011;35409;48.776;9.204;2022-11-02T15:38:54;9.98;;;2.55;;
49502;SDS011;35409;48.776;9.204;2022-11-02T15:41:30;10.27;;;2.65;;
49502;SDS011;35409;48.776;9.204;2022-11-02T15:44:15;8.45;;;2.25;;
49502;SDS011;35409;48.776;9.204;2022-11-02T15:47:14;12.13;;;2.40;;
49502;SDS011;35409;48.776;9.204;2022-11-02T15:50:22;8.45;;;2.05;;
49502;SDS011;35409;48.776;9.204;2022-11-02T15:55:22;10.98;;;2.67;;
49502;SDS011;35409;48.776;9.204;2022-11-02T16:00:24;8.05;;;2.25;;
49502;SDS011;35409;48.776;9.204;2022-11-02T16:03:15;8.55;;;2.22;;
49502;SDS011;35409;48.776;9.204;2022-11-02T16:05:43;12.23;;;3.13;;
49502;SDS011;35409;48.776;9.204;2022-11-02T16:08:23;7.50;;;2.17;;
49502;SDS011;35409;48.776;9.204;2022-11-02T16:10:49;8.65;;;2.85;;
49502;SDS011;35409;48.776;9.204;2022-11-02T16:13:18;9.90;;;2.47;;
49502;SDS011;35409;48.776;9.204;2022-11-02T16:15:45;9.02;;;2.45;;
49502;SDS011;35409;48.776;9.204;2022-11-02T16:20:47;9.68;;;2.83;;
49502;SDS011;35409;48.776;9.204;2022-11-02T16:23:15;12.40;;;2.97;;
49502;SDS011;35409;48.776;9.204;2022-11-02T16:25:45;17.98;;;3.50;;
49502;SDS011;35409;48.776;9.204;2022-11-02T16:28:28;13.57;;;3.22;;
49502;SDS011;35409;48.776;9.204;2022-11-02T16:33:58;12.50;;;3.10;;
49502;SDS011;35409;48.776;9.204;2022-11-02T16:36:30;16.77;;;3.33;;
49502;SDS011;35409;48.776;9.204;2022-11-02T16:39:21;23.15;;;3.50;;
49502;SDS011;35409;48.776;9.204;2022-11-02T16:41:50;9.57;;;3.50;;
49502;SDS011;35409;48.776;9.204;2022-11-02T16:46:51;12.05;;;2.78;;
49502;SDS011;35409;48.776;9.204;2022-11-02T16:49:21;16.60;;;3.55;;
49502;SDS011;35409;48.776;9.204;2022-11-02T16:51:53;12.88;;;2.72;;
49502;SDS011;35409;48.776;9.204;2022-11-02T16:57:03;15.23;;;4.13;;
49502;SDS011;35409;48.776;9.204;2022-11-02T16:59:37;13.02;;;3.40;;
49502;SDS011;35409;48.776;9.204;2022-11-02T17:02:12;16.63;;;3.42;;
49502;SDS011;35409;48.776;9.204;2022-11-02T17:04:40;12.52;;;3.00;;
49502;SDS011;35409;48.776;9.204;2022-11-02T17:07:10;12.48;;;3.15;;
49502;SDS011;35409;48.776;9.204;2022-11-02T17:09:39;18.08;;;3.20;;
49502;SDS011;35409;48.776;9.204;2022-11-02T17:12:07;8.05;;;2.20;;
49502;SDS011;35409;48.776;9.204;2022-11-02T17:14:39;10.88;;;3.05;;
49502;SDS011;35409;48.776;9.204;2022-11-02T17:17:25;10.55;;;2.47;;
49502;SDS011;35409;48.776;9.204;2022-11-02T17:22:25;17.48;;;4.22;;
49502;SDS011;35409;48.776;9.204;2022-11-02T17:25:03;10.85;;;4.10;;
49502;SDS011;35409;48.776;9.204;2022-11-02T17:27:35;14.75;;;4.15;;
49502;SDS011;35409;48.776;9.204;2022-11-02T17:30:01;11.50;;;3.80;;
49502;SDS011;35409;48.776;9.204;2022-11-02T17:32:27;11.80;;;3.25;;
49502;SDS011;35409;48.776;9.204;2022-11-02T17:34:56;18.13;;;3.97;;
49502;SDS011;35409;48.776;9.204;2022-11-02T17:39:49;13.35;;;4.25;;
49502;SDS011;35409;48.776;9.204;2022-11-02T17:42:15;14.10;;;4.97;;